Time;durP1;ratioP1;P1;durP2;ratioP2;P2;SDS_P1;SDS_P2;PMS_P1;PMS_P2;Temp;Humidity;BMP_temperature;BMP_pressure;BME280_temperature;BME280_humidity;BME280_pressure;Samples;Min_cycle;Max_cycle;Signal;HPM_P1;HPM_P2
2022/12/08 00:00:27;;;;;;;;;;;;;;;;;;8429909;28;27732;-77
2022/12/08 00:04:27;;;;;;;;;;;;;;;;;;8426989;28;27550;-76
2022/12/08 00:12:47;;;;;;;;;;;;;;;;;;8421251;28;27602;-77
2022/12/08 00:16:47;;;;;;;;;;;;;;;;;;8423751;28;27498;-77
2022/12/08 00:20:47;;;;;;;;;;;;;;;;;;8409559;28;28826;-75
2022/12/08 00:24:47;;;;;;;;;;;;;;;;;;8427364;28;27260;-75
2022/12/08 00:28:47;;;;;;;;;;;;;;;;;;8427544;28;27279;-77
2022/12/08 00:32:47;;;;;;;;;;;;;;;;;;8428128;28;27701;-76
2022/12/08 00:36:47;;;;;;;;;;;;;;;;;;8425512;28;27813;-76
2022/12/08 00:40:47;;;;;;;;;;;;;;;;;;8405456;28;28710;-76
2022/12/08 00:44:47;;;;;;;;;;;;;;;;;;8427764;28;28069;-77
2022/12/08 00:48:47;;;;;;;;;;;;;;;;;;8423848;28;27233;-77
2022/12/08 00:52:47;;;;;;;;;;;;;;;;;;8427905;28;27486;-78
2022/12/08 00:56:48;;;;;;;;;;;;;;;;;;8430852;28;27510;-78
2022/12/08 01:00:48;;;;;;;;;;;;;;;;;;8426774;28;27169;-77
2022/12/08 01:04:48;;;;;;;;;;;;;;;;;;8433364;28;28009;-77
2022/12/08 01:08:48;;;;;;;;;;;;;;;;;;8431890;28;27600;-77
2022/12/08 01:12:48;;;;;;;;;;;;;;;;;;8415450;28;28139;-76
2022/12/08 01:16:48;;;;;;;;;;;;;;;;;;8431160;28;27200;-78
2022/12/08 01:20:48;;;;;;;;;;;;;;;;;;8432578;28;27849;-77
2022/12/08 01:24:48;;;;;;;;;;;;;;;;;;8429470;28;28403;-77
2022/12/08 01:28:48;;;;;;;;;;;;;;;;;;8423916;28;27501;-77
2022/12/08 01:32:48;;;;;;;;;;;;;;;;;;8430163;28;28619;-77
2022/12/08 01:36:48;;;;;;;;;;;;;;;;;;8428917;28;27432;-77
2022/12/08 01:40:50;;;;;;;;;;;;;;;;;;8412746;28;47732;-77
2022/12/08 01:44:50;;;;;;;;;;;;;;;;;;8413843;28;29637;-76
2022/12/08 01:48:50;;;;;;;;;;;;;;;;;;8430009;28;28618;-77
2022/12/08 01:52:50;;;;;;;;;;;;;;;;;;8409866;28;29793;-77
2022/12/08 01:56:50;;;;;;;;;;;;;;;;;;8432096;28;27429;-77
2022/12/08 02:00:51;;;;;;;;;;;;;;;;;;8414244;28;28898;-77
2022/12/08 02:04:51;;;;;;;;;;;;;;;;;;8424153;27;27136;-75
2022/12/08 02:08:53;;;;;;;;;;;;;;;;;;8431780;28;28216;-78
2022/12/08 02:12:53;;;;;;;;;;;;;;;;;;8409670;28;29971;-76
2022/12/08 02:16:54;;;;;;;;;;;;;;;;;;8429793;28;27257;-78
2022/12/08 02:20:54;;;;;;;;;;;;;;;;;;8409570;28;28487;-77
2022/12/08 02:24:54;;;;;;;;;;;;;;;;;;8431273;28;27661;-78
2022/12/08 02:28:54;;;;;;;;;;;;;;;;;;8429447;28;27450;-77
2022/12/08 02:32:55;;;;;;;;;;;;;;;;;;8412172;28;29628;-76
2022/12/08 02:36:55;;;;;;;;;;;;;;;;;;8407231;28;29430;-78
2022/12/08 02:40:55;;;;;;;;;;;;;;;;;;8408792;28;28573;-78
2022/12/08 02:44:55;;;;;;;;;;;;;;;;;;8425392;28;28968;-77
2022/12/08 02:48:55;;;;;;;;;;;;;;;;;;8431216;28;27699;-77
2022/12/08 02:52:55;;;;;;;;;;;;;;;;;;8408550;28;28752;-76
2022/12/08 02:56:55;;;;;;;;;;;;;;;;;;8430148;28;27427;-76
2022/12/08 03:00:55;;;;;;;;;;;;;;;;;;8402016;28;28646;-76
2022/12/08 03:04:55;;;;;;;;;;;;;;;;;;8427426;28;27555;-76
2022/12/08 03:08:55;;;;;;;;;;;;;;;;;;8429298;28;27181;-76
2022/12/08 03:12:55;;;;;;;;;;;;;;;;;;8423651;28;27437;-77
2022/12/08 03:16:55;;;;;;;;;;;;;;;;;;8405971;28;30260;-76
2022/12/08 03:20:56;;;;;;;;;;;;;;;;;;8428914;28;28880;-77
2022/12/08 03:24:56;;;;;;;;;;;;;;;;;;8410062;28;29075;-77
2022/12/08 03:28:56;;;;;;;;;;;;;;;;;;8404253;28;28881;-76
2022/12/08 03:32:56;;;;;;;;;;;;;;;;;;8423663;28;28949;-78
2022/12/08 03:36:56;;;;;;;;;;;;;;;;;;8409200;28;28680;-77
2022/12/08 03:45:15;;;;;;;;;;;;;;;;;;8426420;28;27458;-76
2022/12/08 03:49:15;;;;;;;;;;;;;;;;;;8425616;28;28042;-76
2022/12/08 03:53:15;;;;;;;;;;;;;;;;;;8424017;28;27364;-76
2022/12/08 03:57:15;;;;;;;;;;;;;;;;;;8426577;28;27281;-77
2022/12/08 04:01:15;;;;;;;;;;;;;;;;;;8425983;28;27289;-77
2022/12/08 04:05:15;;;;;;;;;;;;;;;;;;8425782;28;27348;-78
2022/12/08 04:09:15;;;;;;;;;;;;;;;;;;8407259;28;28678;-78
2022/12/08 04:13:15;;;;;;;;;;;;;;;;;;8426414;28;27430;-76
2022/12/08 04:17:15;;;;;;;;;;;;;;;;;;8428512;28;28082;-76
2022/12/08 04:21:16;;;;;;;;;;;;;;;;;;8407856;28;28489;-75
2022/12/08 04:25:16;;;;;;;;;;;;;;;;;;8425219;28;27673;-76
2022/12/08 04:29:16;;;;;;;;;;;;;;;;;;8407917;28;28377;-75
2022/12/08 04:33:16;;;;;;;;;;;;;;;;;;8409158;28;29058;-76
2022/12/08 04:37:16;;;;;;;;;;;;;;;;;;8408985;28;28555;-76
2022/12/08 04:41:16;;;;;;;;;;;;;;;;;;8424755;28;27300;-76
2022/12/08 04:45:16;;;;;;;;;;;;;;;;;;8426524;28;28920;-78
2022/12/08 04:49:16;;;;;;;;;;;;;;;;;;8422369;28;28449;-77
2022/12/08 04:53:16;;;;;;;;;;;;;;;;;;8425982;28;27148;-78
2022/12/08 04:57:16;;;;;;;;;;;;;;;;;;8423800;28;27444;-79
2022/12/08 05:01:16;;;;;;;;;;;;;;;;;;8418457;28;27635;-77
2022/12/08 05:05:17;;;;;;;;;;;;;;;;;;8406441;28;28160;-77
2022/12/08 05:09:17;;;;;;;;;;;;;;;;;;8424422;28;27301;-77
2022/12/08 05:13:17;;;;;;;;;;;;;;;;;;8408140;28;28825;-78
2022/12/08 05:17:17;;;;;;;;;;;;;;;;;;8427566;28;28417;-78
2022/12/08 05:21:17;;;;;;;;;;;;;;;;;;8422281;28;28565;-78
2022/12/08 05:25:17;;;;;;;;;;;;;;;;;;8422470;28;28045;-79
2022/12/08 05:29:17;;;;;;;;;;;;;;;;;;8407054;28;28519;-78
2022/12/08 05:33:17;;;;;;;;;;;;;;;;;;8426601;28;28714;-79
2022/12/08 05:37:17;;;;;;;;;;;;;;;;;;8407584;28;28815;-78
2022/12/08 05:41:17;;;;;;;;;;;;;;;;;;8426753;27;27396;-78
2022/12/08 05:45:17;;;;;;;;;;;;;;;;;;8432088;28;27501;-78
2022/12/08 05:49:18;;;;;;;;;;;;;;;;;;8408303;28;28540;-77
2022/12/08 05:53:18;;;;;;;;;;;;;;;;;;8430347;28;27437;-78
2022/12/08 05:57:18;;;;;;;;;;;;;;;;;;8430755;28;27139;-78
2022/12/08 06:01:18;;;;;;;;;;;;;;;;;;8426464;28;27657;-78
2022/12/08 06:05:18;;;;;;;;;;;;;;;;;;8427247;28;29390;-76
2022/12/08 06:09:18;;;;;;;;;;;;;;;;;;8431470;28;27555;-78
2022/12/08 06:13:18;;;;;;;;;;;;;;;;;;8409796;28;29539;-79
2022/12/08 06:17:18;;;;;;;;;;;;;;;;;;8429133;28;28571;-79
2022/12/08 06:21:18;;;;;;;;;;;;;;;;;;8407472;28;29746;-77
2022/12/08 06:25:18;;;;;;;;;;;;;;;;;;8410771;28;29849;-77
2022/12/08 06:29:18;;;;;;;;;;;;;;;;;;8414584;28;28587;-78
2022/12/08 06:33:19;;;;;;;;;;;;;;;;;;8430063;28;28575;-79
2022/12/08 06:37:19;;;;;;;;;;;;;;;;;;8429580;28;27421;-78
2022/12/08 06:41:19;;;;;;;;;;;;;;;;;;8425985;28;28495;-77
2022/12/08 06:45:19;;;;;;;;;;;;;;;;;;8427984;28;27403;-78
2022/12/08 06:49:19;;;;;;;;;;;;;;;;;;8426266;27;28448;-79
2022/12/08 06:53:19;;;;;;;;;;;;;;;;;;8425388;28;27411;-79
2022/12/08 06:57:19;;;;;;;;;;;;;;;;;;8425687;28;27466;-77
2022/12/08 07:01:20;;;;;;;;;;;;;;;;;;8409715;28;27492;-78
2022/12/08 07:05:20;;;;;;;;;;;;;;;;;;8427194;28;27699;-77
2022/12/08 07:09:20;;;;;;;;;;;;;;;;;;8409705;28;29694;-77
2022/12/08 07:13:20;;;;;;;;;;;;;;;;;;8424201;28;28782;-77
2022/12/08 07:17:20;;;;;;;;;;;;;;;;;;8427720;28;27246;-78
2022/12/08 07:21:20;;;;;;;;;;;;;;;;;;8428604;28;27460;-78
2022/12/08 07:25:20;;;;;;;;;;;;;;;;;;8425652;28;27293;-79
2022/12/08 07:29:20;;;;;;;;;;;;;;;;;;8408455;28;29174;-79
2022/12/08 07:33:20;;;;;;;;;;;;;;;;;;8410455;28;28554;-77
2022/12/08 07:37:20;;;;;;;;;;;;;;;;;;8411318;28;28330;-76
2022/12/08 07:41:21;;;;;;;;;;;;;;;;;;8408053;28;28459;-78
2022/12/08 07:45:21;;;;;;;;;;;;;;;;;;8428979;28;28046;-77
2022/12/08 07:49:21;;;;;;;;;;;;;;;;;;8420984;28;27358;-78
2022/12/08 07:53:21;;;;;;;;;;;;;;;;;;8426807;28;27465;-78
2022/12/08 07:57:21;;;;;;;;;;;;;;;;;;8429551;28;27487;-78
2022/12/08 08:01:21;;;;;;;;;;;;;;;;;;8422998;28;27336;-77
2022/12/08 08:05:21;;;;;;;;;;;;;;;;;;8424683;28;28712;-77
2022/12/08 08:09:21;;;;;;;;;;;;;;;;;;8422458;28;29605;-77
2022/12/08 08:13:21;;;;;;;;;;;;;;;;;;8424658;28;27369;-76
2022/12/08 08:17:21;;;;;;;;;;;;;;;;;;8409504;28;28522;-78
2022/12/08 08:21:21;;;;;;;;;;;;;;;;;;8426168;28;27323;-77
2022/12/08 08:25:22;;;;;;;;;;;;;;;;;;8424824;28;27148;-79
2022/12/08 08:29:22;;;;;;;;;;;;;;;;;;8407720;28;28836;-78
2022/12/08 08:33:22;;;;;;;;;;;;;;;;;;8424754;27;27356;-77
2022/12/08 08:37:22;;;;;;;;;;;;;;;;;;8423869;28;27326;-77
2022/12/08 08:41:22;;;;;;;;;;;;;;;;;;8423158;28;27247;-77
2022/12/08 08:45:22;;;;;;;;;;;;;;;;;;8428391;28;27191;-77
2022/12/08 08:49:22;;;;;;;;;;;;;;;;;;8427418;27;28825;-78
2022/12/08 08:53:22;;;;;;;;;;;;;;;;;;8422183;28;27808;-78
2022/12/08 08:57:22;;;;;;;;;;;;;;;;;;8425369;28;27593;-77
2022/12/08 09:01:23;;;;;;;;;;;;;;;;;;8424549;28;28063;-80
2022/12/08 09:05:23;;;;;;;;;;;;;;;;;;8425366;28;27363;-78
2022/12/08 09:09:23;;;;;;;;;;;;;;;;;;8425617;28;27059;-79
2022/12/08 09:13:23;;;;;;;;;;;;;;;;;;8418419;28;27492;-79
2022/12/08 09:17:23;;;;;;;;;;;;;;;;;;8429939;28;27160;-78
2022/12/08 09:21:24;;;;;;;;;;;;;;;;;;8411760;28;27584;-79
2022/12/08 09:25:24;;;;;;;;;;;;;;;;;;8411989;28;28545;-78
2022/12/08 09:29:24;;;;;;;;;;;;;;;;;;8413600;28;28554;-77
2022/12/08 09:33:24;;;;;;;;;;;;;;;;;;8431369;28;27713;-80
2022/12/08 09:37:24;;;;;;;;;;;;;;;;;;8411901;28;28453;-77
2022/12/08 09:41:25;;;;;;;;;;;;;;;;;;8410944;28;28191;-78
2022/12/08 09:45:25;;;;;;;;;;;;;;;;;;8428838;28;27489;-78
2022/12/08 09:49:25;;;;;;;;;;;;;;;;;;8409811;28;28797;-79
2022/12/08 09:53:25;;;;;;;;;;;;;;;;;;8426845;28;27651;-78
2022/12/08 09:57:25;;;;;;;;;;;;;;;;;;8429751;28;28018;-78
2022/12/08 10:01:25;;;;;;;;;;;;;;;;;;8406315;28;28678;-77
2022/12/08 10:05:25;;;;;;;;;;;;;;;;;;8424888;28;27252;-80
2022/12/08 10:09:25;;;;;;;;;;;;;;;;;;8407493;28;29762;-79
2022/12/08 10:13:25;;;;;;;;;;;;;;;;;;8426441;28;27356;-77
2022/12/08 10:17:25;;;;;;;;;;;;;;;;;;8431465;28;27437;-78
2022/12/08 10:21:25;;;;;;;;;;;;;;;;;;8428996;27;27485;-77
2022/12/08 10:25:25;;;;;;;;;;;;;;;;;;8409131;27;28634;-77
2022/12/08 10:29:26;;;;;;;;;;;;;;;;;;8426285;27;27304;-77
2022/12/08 10:33:27;;;;;;;;;;;;;;;;;;8426061;28;27141;-76
2022/12/08 10:37:28;;;;;;;;;;;;;;;;;;8407395;28;28920;-77
2022/12/08 10:41:28;;;;;;;;;;;;;;;;;;8408991;28;28641;-78
2022/12/08 10:45:28;;;;;;;;;;;;;;;;;;8426385;28;27308;-78
2022/12/08 10:49:28;;;;;;;;;;;;;;;;;;8407645;28;27182;-78
2022/12/08 10:53:28;;;;;;;;;;;;;;;;;;8425881;28;27930;-78
2022/12/08 10:57:28;;;;;;;;;;;;;;;;;;8427364;28;27370;-78
2022/12/08 11:01:28;;;;;;;;;;;;;;;;;;8427772;27;27469;-78
2022/12/08 11:05:29;;;;;;;;;;;;;;;;;;8412246;28;29858;-81
2022/12/08 11:09:29;;;;;;;;;;;;;;;;;;8425863;28;27273;-79
2022/12/08 11:13:29;;;;;;;;;;;;;;;;;;8425310;27;27345;-78
2022/12/08 11:17:29;;;;;;;;;;;;;;;;;;8427125;27;27402;-79
2022/12/08 11:21:29;;;;;;;;;;;;;;;;;;8426015;28;27500;-80
2022/12/08 11:25:29;;;;;;;;;;;;;;;;;;8408754;28;28575;-79
2022/12/08 11:29:29;;;;;;;;;;;;;;;;;;8424477;28;28535;-78
2022/12/08 11:33:29;;;;;;;;;;;;;;;;;;8423618;28;27600;-77
2022/12/08 11:37:29;;;;;;;;;;;;;;;;;;8422295;28;27231;-78
2022/12/08 11:41:29;;;;;;;;;;;;;;;;;;8423743;28;27431;-78
2022/12/08 11:45:30;;;;;;;;;;;;;;;;;;8427169;28;28249;-79
2022/12/08 11:49:30;;;;;;;;;;;;;;;;;;8426182;28;27559;-77
2022/12/08 11:53:30;;;;;;;;;;;;;;;;;;8427432;28;27381;-77
2022/12/08 11:57:30;;;;;;;;;;;;;;;;;;8426540;28;27410;-77
2022/12/08 12:01:30;;;;;;;;;;;;;;;;;;8425325;28;27829;-78
2022/12/08 12:05:30;;;;;;;;;;;;;;;;;;8406743;28;28555;-76
2022/12/08 12:09:30;;;;;;;;;;;;;;;;;;8426807;28;27492;-78
2022/12/08 12:13:30;;;;;;;;;;;;;;;;;;8425107;28;27115;-80
2022/12/08 12:17:30;;;;;;;;;;;;;;;;;;8423147;28;27240;-78
2022/12/08 12:21:31;;;;;;;;;;;;;;;;;;8403657;27;29706;-77
2022/12/08 12:25:31;;;;;;;;;;;;;;;;;;8424839;28;27347;-78
2022/12/08 12:29:31;;;;;;;;;;;;;;;;;;8429101;28;27940;-76
2022/12/08 12:33:31;;;;;;;;;;;;;;;;;;8428389;27;27531;-77
2022/12/08 12:37:31;;;;;;;;;;;;;;;;;;8423034;27;27736;-76
2022/12/08 12:41:31;;;;;;;;;;;;;;;;;;8408894;27;28171;-77
2022/12/08 12:45:31;;;;;;;;;;;;;;;;;;8423910;28;28876;-77
2022/12/08 12:49:31;;;;;;;;;;;;;;;;;;8411947;28;28597;-76
2022/12/08 12:53:32;;;;;;;;;;;;;;;;;;8432557;28;27729;-76
2022/12/08 12:57:32;;;;;;;;;;;;;;;;;;8414880;28;28155;-76
2022/12/08 13:01:32;;;;;;;;;;;;;;;;;;8415269;28;30235;-76
2022/12/08 13:05:32;;;;;;;;;;;;;;;;;;8414201;28;28924;-77
2022/12/08 13:09:32;;;;;;;;;;;;;;;;;;8428843;28;28001;-76
2022/12/08 13:13:32;;;;;;;;;;;;;;;;;;8414695;28;29196;-77
2022/12/08 13:17:32;;;;;;;;;;;;;;;;;;8427580;28;28368;-76
2022/12/08 13:21:32;;;;;;;;;;;;;;;;;;8434602;28;27477;-77
2022/12/08 13:25:32;;;;;;;;;;;;;;;;;;8431397;28;27212;-77
2022/12/08 13:29:32;;;;;;;;;;;;;;;;;;8424321;28;28826;-77
2022/12/08 13:33:32;;;;;;;;;;;;;;;;;;8430757;28;28662;-76
2022/12/08 13:37:33;;;;;;;;;;;;;;;;;;8431712;28;28495;-77
2022/12/08 13:41:33;;;;;;;;;;;;;;;;;;8434423;28;28124;-77
2022/12/08 13:45:33;;;;;;;;;;;;;;;;;;8415247;28;28261;-76
2022/12/08 13:49:33;;;;;;;;;;;;;;;;;;8429673;28;28598;-77
2022/12/08 13:57:52;;;;;;;;;;;;;;;;;;8386706;27;27175;-76
2022/12/08 14:01:52;;;;;;;;;;;;;;;;;;8415861;27;27888;-77
2022/12/08 14:05:52;;;;;;;;;;;;;;;;;;8424437;27;28807;-76
2022/12/08 14:09:52;;;;;;;;;;;;;;;;;;8978817;22;28405;-77
2022/12/08 14:13:52;;;;;;;;;;;;;;;;;;8357459;28;27419;-78
2022/12/08 14:17:52;;;;;;;;;;;;;;;;;;8345356;28;27361;-79
2022/12/08 14:21:52;;;;;;;;;;;;;;;;;;8348508;28;28749;-81
2022/12/08 14:25:53;;;;;;;;;;;;;;;;;;8362922;28;27202;-79
2022/12/08 14:29:53;;;;;;;;;;;;;;;;;;8360058;28;27158;-79
2022/12/08 14:33:53;;;;;;;;;;;;;;;;;;8351824;28;46472;-78
2022/12/08 14:37:53;;;;;;;;;;;;;;;;;;8351111;28;27855;-78
2022/12/08 14:41:53;;;;;;;;;;;;;;;;;;8358020;28;27281;-78
2022/12/08 14:45:53;;;;;;;;;;;;;;;;;;8352548;28;27475;-78
2022/12/08 14:49:53;;;;;;;;;;;;;;;;;;8355159;28;27416;-80
2022/12/08 14:53:53;;;;;;;;;;;;;;;;;;8353278;28;27219;-78
2022/12/08 14:57:53;;;;;;;;;;;;;;;;;;8361929;28;27662;-80
2022/12/08 15:01:53;;;;;;;;;;;;;;;;;;8362141;28;27781;-78
2022/12/08 15:05:54;;;;;;;;;;;;;;;;;;8361074;28;27114;-79
2022/12/08 15:09:54;;;;;;;;;;;;;;;;;;8351796;28;27142;-79
2022/12/08 15:13:54;;;;;;;;;;;;;;;;;;8341505;28;28535;-78
2022/12/08 15:17:54;;;;;;;;;;;;;;;;;;8354076;28;27614;-80
2022/12/08 15:21:54;;;;;;;;;;;;;;;;;;8332778;28;28706;-78
2022/12/08 15:25:54;;;;;;;;;;;;;;;;;;8358192;28;27489;-79
2022/12/08 15:29:54;;;;;;;;;;;;;;;;;;8357003;28;28556;-78
2022/12/08 15:33:54;;;;;;;;;;;;;;;;;;8347861;28;27264;-80
2022/12/08 15:37:54;;;;;;;;;;;;;;;;;;8359571;28;27385;-80
2022/12/08 15:41:55;;;;;;;;;;;;;;;;;;8366466;28;27497;-80
2022/12/08 15:45:55;;;;;;;;;;;;;;;;;;8355691;28;27432;-81
2022/12/08 15:49:55;;;;;;;;;;;;;;;;;;8331103;28;28793;-78
2022/12/08 15:53:55;;;;;;;;;;;;;;;;;;8362524;28;28041;-78
2022/12/08 15:57:55;;;;;;;;;;;;;;;;;;8350218;28;27766;-79
2022/12/08 16:01:55;;;;;;;;;;;;;;;;;;8348933;28;27354;-79
2022/12/08 16:05:55;;;;;;;;;;;;;;;;;;8332262;28;28663;-79
2022/12/08 16:09:55;;;;;;;;;;;;;;;;;;8352044;28;28790;-76
2022/12/08 16:13:56;;;;;;;;;;;;;;;;;;8347317;28;27702;-79
2022/12/08 16:17:57;;;;;;;;;;;;;;;;;;8357062;28;28215;-80
2022/12/08 16:21:57;;;;;;;;;;;;;;;;;;8356335;28;27168;-80
2022/12/08 16:25:58;;;;;;;;;;;;;;;;;;8347121;28;27089;-81
2022/12/08 16:29:58;;;;;;;;;;;;;;;;;;8353149;28;28892;-77
2022/12/08 16:33:58;;;;;;;;;;;;;;;;;;8352680;28;27246;-79
2022/12/08 16:37:58;;;;;;;;;;;;;;;;;;8352350;28;28123;-78
2022/12/08 16:46:17;;;;;;;;;;;;;;;;;;8352377;28;27418;-79
2022/12/08 16:50:18;;;;;;;;;;;;;;;;;;8353106;28;27938;-80
2022/12/08 16:54:18;;;;;;;;;;;;;;;;;;8348133;28;27380;-80
2022/12/08 16:58:18;;;;;;;;;;;;;;;;;;8350538;28;27344;-80
2022/12/08 17:02:18;;;;;;;;;;;;;;;;;;8348139;28;28098;-80
2022/12/08 17:06:18;;;;;;;;;;;;;;;;;;8347253;28;28278;-80
2022/12/08 17:10:18;;;;;;;;;;;;;;;;;;8349790;28;27189;-80
2022/12/08 17:14:19;;;;;;;;;;;;;;;;;;8346398;28;27366;-80
2022/12/08 17:18:19;;;;;;;;;;;;;;;;;;8347209;28;28551;-80
2022/12/08 17:22:19;;;;;;;;;;;;;;;;;;8348067;28;27294;-79
2022/12/08 17:26:19;;;;;;;;;;;;;;;;;;8346535;28;27154;-80
2022/12/08 17:30:19;;;;;;;;;;;;;;;;;;8350486;28;28365;-79
2022/12/08 17:34:19;;;;;;;;;;;;;;;;;;8342061;28;28710;-79
2022/12/08 17:38:19;;;;;;;;;;;;;;;;;;8355494;28;27395;-79
2022/12/08 17:42:24;;;;;;;;;;;;;;;;;;8338022;28;29126;-79
2022/12/08 17:46:24;;;;;;;;;;;;;;;;;;8365128;28;27364;-77
2022/12/08 17:50:24;;;;;;;;;;;;;;;;;;8359356;28;27442;-80
2022/12/08 17:54:24;;;;;;;;;;;;;;;;;;8354624;28;27920;-80
2022/12/08 17:58:24;;;;;;;;;;;;;;;;;;8358861;28;27441;-79
2022/12/08 18:02:25;;;;;;;;;;;;;;;;;;8353469;28;27407;-81
2022/12/08 18:06:25;;;;;;;;;;;;;;;;;;8349589;28;27122;-80
2022/12/08 18:10:25;;;;;;;;;;;;;;;;;;8337831;28;28429;-80
2022/12/08 18:14:25;;;;;;;;;;;;;;;;;;8334054;28;29597;-81
2022/12/08 18:18:25;;;;;;;;;;;;;;;;;;8334508;28;28680;-80
2022/12/08 18:22:25;;;;;;;;;;;;;;;;;;8357734;28;27219;-79
2022/12/08 18:26:25;;;;;;;;;;;;;;;;;;8345185;28;28870;-82
2022/12/08 18:30:26;;;;;;;;;;;;;;;;;;8353009;28;28008;-79
2022/12/08 18:34:26;;;;;;;;;;;;;;;;;;8365777;28;28067;-78
2022/12/08 18:38:26;;;;;;;;;;;;;;;;;;8364093;28;28670;-78
2022/12/08 18:42:27;;;;;;;;;;;;;;;;;;8344640;28;28431;-79
2022/12/08 18:46:27;;;;;;;;;;;;;;;;;;8339536;28;29043;-78
2022/12/08 18:50:27;;;;;;;;;;;;;;;;;;8353049;28;27440;-80
2022/12/08 18:54:27;;;;;;;;;;;;;;;;;;8352485;28;27269;-80
2022/12/08 18:58:27;;;;;;;;;;;;;;;;;;8363328;28;27186;-82
2022/12/08 19:02:27;;;;;;;;;;;;;;;;;;8339398;28;28831;-80
2022/12/08 19:06:28;;;;;;;;;;;;;;;;;;8342696;28;29428;-81
2022/12/08 19:10:30;;;;;;;;;;;;;;;;;;8335599;28;28900;-80
2022/12/08 19:14:30;;;;;;;;;;;;;;;;;;8362714;28;28370;-80
2022/12/08 19:18:30;;;;;;;;;;;;;;;;;;8351356;28;27537;-77
2022/12/08 19:22:30;;;;;;;;;;;;;;;;;;8355154;28;28651;-78
2022/12/08 19:26:30;;;;;;;;;;;;;;;;;;8357347;28;27417;-79
2022/12/08 19:30:31;;;;;;;;;;;;;;;;;;8355514;28;27192;-81
2022/12/08 19:34:31;;;;;;;;;;;;;;;;;;8355470;28;28562;-80
2022/12/08 19:44:51;;;;;;;;;;;;;;;;;;8363120;28;27239;-80
2022/12/08 19:47:10;;;;;;;;;;;;;;;;;;8353482;28;27374;-78
2022/12/08 19:51:10;;;;;;;;;;;;;;;;;;8353321;28;27656;-79
2022/12/08 19:55:11;;;;;;;;;;;;;;;;;;8347955;28;28388;-78
2022/12/08 19:59:14;;;;;;;;;;;;;;;;;;8348524;28;28744;-81
2022/12/08 20:03:14;;;;;;;;;;;;;;;;;;8352992;28;27934;-80
2022/12/08 20:07:14;;;;;;;;;;;;;;;;;;8340476;28;28436;-80
2022/12/08 20:11:14;;;;;;;;;;;;;;;;;;8339606;28;28479;-80
2022/12/08 20:15:14;;;;;;;;;;;;;;;;;;8356049;28;27447;-80
2022/12/08 20:19:14;;;;;;;;;;;;;;;;;;8338957;28;28839;-80
2022/12/08 20:23:15;;;;;;;;;;;;;;;;;;8329283;28;28536;-81
2022/12/08 20:27:15;;;;;;;;;;;;;;;;;;8354126;28;27384;-78
2022/12/08 20:31:15;;;;;;;;;;;;;;;;;;8357170;28;27687;-79
2022/12/08 20:35:15;;;;;;;;;;;;;;;;;;8337043;28;28252;-80
2022/12/08 20:39:15;;;;;;;;;;;;;;;;;;8351939;28;27601;-79
2022/12/08 20:43:15;;;;;;;;;;;;;;;;;;8353443;28;27185;-80
2022/12/08 20:47:15;;;;;;;;;;;;;;;;;;8346643;28;27326;-80
2022/12/08 20:51:15;;;;;;;;;;;;;;;;;;8352820;28;27928;-81
2022/12/08 20:55:15;;;;;;;;;;;;;;;;;;8354594;28;28093;-81
2022/12/08 20:59:16;;;;;;;;;;;;;;;;;;8357529;28;27343;-79
2022/12/08 21:03:17;;;;;;;;;;;;;;;;;;8340393;28;29922;-79
2022/12/08 21:07:17;;;;;;;;;;;;;;;;;;8356257;28;27011;-80
2022/12/08 21:11:17;;;;;;;;;;;;;;;;;;8360580;28;27277;-80
2022/12/08 21:15:17;;;;;;;;;;;;;;;;;;8355391;28;27591;-80
2022/12/08 21:19:18;;;;;;;;;;;;;;;;;;8356234;28;27329;-79
2022/12/08 21:23:18;;;;;;;;;;;;;;;;;;8354036;28;27259;-79
2022/12/08 21:27:18;;;;;;;;;;;;;;;;;;8354609;28;28205;-79
2022/12/08 21:31:20;;;;;;;;;;;;;;;;;;8336431;28;29512;-79
2022/12/08 21:35:20;;;;;;;;;;;;;;;;;;8342710;28;29841;-82
2022/12/08 21:39:20;;;;;;;;;;;;;;;;;;8347725;28;28702;-80
2022/12/08 21:43:20;;;;;;;;;;;;;;;;;;8367352;28;28160;-81
2022/12/08 21:47:20;;;;;;;;;;;;;;;;;;8342839;28;28674;-81
2022/12/08 21:51:20;;;;;;;;;;;;;;;;;;8349418;28;28221;-79
2022/12/08 21:55:22;;;;;;;;;;;;;;;;;;8363479;28;27355;-80
2022/12/08 21:59:22;;;;;;;;;;;;;;;;;;8350966;28;28764;-81
2022/12/08 22:03:22;;;;;;;;;;;;;;;;;;8343409;28;29141;-78
2022/12/08 22:07:22;;;;;;;;;;;;;;;;;;8352285;28;28919;-80
2022/12/08 22:11:22;;;;;;;;;;;;;;;;;;8358327;28;27387;-78
2022/12/08 22:15:22;;;;;;;;;;;;;;;;;;8357491;28;27538;-78
2022/12/08 22:19:23;;;;;;;;;;;;;;;;;;8357235;28;27905;-80
2022/12/08 22:23:23;;;;;;;;;;;;;;;;;;8363038;28;27466;-79
2022/12/08 22:27:23;;;;;;;;;;;;;;;;;;8343146;28;29546;-79
2022/12/08 22:31:23;;;;;;;;;;;;;;;;;;8358618;28;27358;-80
2022/12/08 22:35:23;;;;;;;;;;;;;;;;;;8359799;28;27621;-79
2022/12/08 22:39:23;;;;;;;;;;;;;;;;;;8354737;28;27336;-77
2022/12/08 22:43:24;;;;;;;;;;;;;;;;;;8357840;28;27816;-79
2022/12/08 22:47:24;;;;;;;;;;;;;;;;;;8346045;28;28411;-79
2022/12/08 22:51:24;;;;;;;;;;;;;;;;;;8342770;28;28232;-79
2022/12/08 22:55:24;;;;;;;;;;;;;;;;;;8343917;28;28901;-79
2022/12/08 22:59:24;;;;;;;;;;;;;;;;;;8361666;28;27818;-80
2022/12/08 23:03:24;;;;;;;;;;;;;;;;;;8339836;28;28549;-79
2022/12/08 23:07:24;;;;;;;;;;;;;;;;;;8340599;28;28669;-79
2022/12/08 23:11:24;;;;;;;;;;;;;;;;;;8336761;28;30048;-81
2022/12/08 23:15:24;;;;;;;;;;;;;;;;;;8353784;28;27116;-81
2022/12/08 23:19:24;;;;;;;;;;;;;;;;;;8357289;28;28731;-79
2022/12/08 23:23:24;;;;;;;;;;;;;;;;;;8343048;28;28472;-81
2022/12/08 23:27:24;;;;;;;;;;;;;;;;;;8344270;28;28700;-81
2022/12/08 23:31:25;;;;;;;;;;;;;;;;;;8355985;28;27396;-80
2022/12/08 23:35:25;;;;;;;;;;;;;;;;;;8350609;28;27441;-81
2022/12/08 23:39:25;;;;;;;;;;;;;;;;;;8354723;28;27344;-79
2022/12/08 23:43:25;;;;;;;;;;;;;;;;;;8357866;28;27571;-80
2022/12/08 23:47:25;;;;;;;;;;;;;;;;;;8355383;28;27555;-79
2022/12/08 23:51:25;;;;;;;;;;;;;;;;;;8355434;28;27656;-80
2022/12/08 23:55:25;;;;;;;;;;;;;;;;;;8335275;28;28559;-81
2022/12/08 23:59:25;;;;;;;;;;;;;;;;;;8355975;28;27506;-79
